Time;durP1;ratioP1;P1;durP2;ratioP2;P2;SDS_P1;SDS_P2;PMS_P1;PMS_P2;Temp;Humidity;BMP_temperature;BMP_pressure;BME280_temperature;BME280_humidity;BME280_pressure;Samples;Min_cycle;Max_cycle;Signal;HPM_P1;HPM_P2
2023/10/21 00:01:50;;;;;;;24.37;14.60;;;6.80;99.90;;;;;;5072112;28;20211;-62
2023/10/21 00:04:15;;;;;;;24.40;16.67;;;6.70;99.90;;;;;;5068396;28;20183;-60
2023/10/21 00:06:41;;;;;;;24.87;15.67;;;6.70;99.90;;;;;;5067547;28;20626;-62
2023/10/21 00:09:07;;;;;;;24.23;14.30;;;6.80;99.90;;;;;;5051396;28;20236;-63
2023/10/21 00:11:33;;;;;;;22.63;15.67;;;6.80;99.90;;;;;;5072995;28;20190;-63
2023/10/21 00:13:58;;;;;;;24.33;16.23;;;6.80;99.90;;;;;;5071015;28;20193;-62
2023/10/21 00:16:24;;;;;;;22.43;14.53;;;6.80;99.90;;;;;;5071129;28;20237;-61
2023/10/21 00:18:50;;;;;;;27.50;16.83;;;6.80;99.90;;;;;;5074103;28;20201;-63
2023/10/21 00:21:16;;;;;;;26.30;13.90;;;6.80;99.90;;;;;;5060827;28;20861;-64
2023/10/21 00:23:41;;;;;;;23.10;14.27;;;6.80;99.90;;;;;;5056622;28;20510;-65
2023/10/21 00:26:07;;;;;;;25.00;15.70;;;6.80;99.90;;;;;;5046930;28;20206;-63
2023/10/21 00:28:33;;;;;;;22.63;14.13;;;6.90;99.90;;;;;;5056197;28;20193;-65
2023/10/21 00:31:03;;;;;;;24.97;17.20;;;6.90;99.90;;;;;;5073942;28;20656;-61
2023/10/21 00:33:28;;;;;;;28.20;14.53;;;6.90;99.90;;;;;;5067060;28;20186;-62
2023/10/21 00:35:54;;;;;;;28.27;16.27;;;6.90;99.90;;;;;;5073651;28;20447;-64
2023/10/21 00:38:20;;;;;;;27.00;16.07;;;6.90;99.90;;;;;;5073645;28;20805;-63
2023/10/21 00:40:53;;;;;;;28.80;18.20;;;6.90;99.90;;;;;;5070939;28;20185;-62
2023/10/21 00:43:51;;;;;;;25.00;15.83;;;6.90;99.90;;;;;;5073259;28;20660;-61
2023/10/21 00:46:18;;;;;;;30.50;16.53;;;6.90;99.90;;;;;;5036159;28;20448;-62
2023/10/21 00:48:45;;;;;;;22.03;15.20;;;6.90;99.90;;;;;;5073245;28;20867;-62
2023/10/21 00:51:12;;;;;;;29.00;16.20;;;6.90;99.90;;;;;;5073250;28;20424;-62
2023/10/21 00:53:38;;;;;;;29.27;15.87;;;6.90;99.90;;;;;;5072952;28;20409;-62
2023/10/21 00:56:06;;;;;;;23.57;15.37;;;6.90;99.90;;;;;;5072983;28;20527;-62
2023/10/21 00:58:32;;;;;;;27.23;16.10;;;6.90;99.90;;;;;;5071096;28;20474;-64
2023/10/21 01:01:02;;;;;;;24.50;16.53;;;6.90;99.90;;;;;;5073246;28;20496;-64
2023/10/21 01:03:29;;;;;;;25.83;16.03;;;6.90;99.90;;;;;;5072900;28;20420;-63
2023/10/21 01:05:55;;;;;;;30.60;17.50;;;6.90;99.90;;;;;;5072846;28;20437;-62
2023/10/21 01:08:21;;;;;;;28.57;15.03;;;6.90;99.90;;;;;;5072778;28;20940;-63
2023/10/21 01:10:47;;;;;;;29.40;15.30;;;7.00;99.90;;;;;;5072194;28;20452;-63
2023/10/21 01:13:13;;;;;;;27.57;16.13;;;7.00;99.90;;;;;;5064603;28;20183;-62
2023/10/21 01:15:38;;;;;;;31.10;17.90;;;7.00;99.90;;;;;;5066511;28;22133;-63
2023/10/21 01:18:06;;;;;;;25.13;17.10;;;7.00;99.90;;;;;;5049466;28;20197;-62
2023/10/21 01:20:32;;;;;;;29.80;15.10;;;7.00;99.90;;;;;;5072576;28;20333;-65
2023/10/21 01:22:59;;;;;;;28.60;17.90;;;7.00;99.90;;;;;;5072518;28;20464;-62
2023/10/21 01:25:25;;;;;;;31.07;17.80;;;7.00;99.90;;;;;;5072528;28;20541;-62
2023/10/21 01:27:54;;;;;;;30.27;17.97;;;7.00;99.90;;;;;;5072747;28;20825;-62
2023/10/21 01:30:21;;;;;;;37.40;18.63;;;7.00;99.90;;;;;;5072475;28;20598;-64
2023/10/21 01:32:49;;;;;;;40.87;18.63;;;7.00;99.90;;;;;;5070337;28;20453;-63
2023/10/21 01:35:16;;;;;;;28.57;16.57;;;7.10;99.90;;;;;;5072475;28;20517;-64
2023/10/21 01:37:43;;;;;;;26.70;17.43;;;7.10;99.90;;;;;;5072214;28;20790;-64
2023/10/21 01:40:10;;;;;;;26.53;16.33;;;7.10;99.90;;;;;;5072427;28;20490;-64
2023/10/21 01:42:36;;;;;;;27.63;18.13;;;7.10;99.90;;;;;;5071795;28;20539;-62
2023/10/21 01:45:04;;;;;;;30.63;16.80;;;7.10;99.90;;;;;;5072006;28;20423;-62
2023/10/21 01:47:30;;;;;;;31.83;18.00;;;7.10;99.90;;;;;;5071732;28;20571;-62
2023/10/21 01:49:59;;;;;;;26.23;16.73;;;7.10;99.90;;;;;;5068310;28;20444;-62
2023/10/21 01:52:25;;;;;;;32.30;19.87;;;7.10;99.90;;;;;;5071680;28;20428;-63
2023/10/21 01:54:53;;;;;;;37.10;19.00;;;7.10;99.90;;;;;;5065875;28;20433;-62
2023/10/21 01:57:19;;;;;;;33.97;17.27;;;7.10;99.90;;;;;;5071910;28;20713;-62
2023/10/21 01:59:45;;;;;;;30.33;17.07;;;7.10;99.90;;;;;;5071769;28;20433;-62
2023/10/21 02:02:11;;;;;;;28.20;18.57;;;7.10;99.90;;;;;;5071564;28;20460;-62
2023/10/21 02:04:36;;;;;;;28.47;17.87;;;7.20;99.90;;;;;;5071466;28;20432;-62
2023/10/21 02:07:02;;;;;;;28.40;18.90;;;7.20;99.90;;;;;;5067886;28;20664;-61
2023/10/21 02:09:28;;;;;;;36.43;19.10;;;7.10;99.90;;;;;;5067499;28;20240;-62
2023/10/21 02:11:57;;;;;;;29.10;18.27;;;7.20;99.90;;;;;;5062356;28;20174;-62
2023/10/21 02:14:23;;;;;;;36.43;21.33;;;7.20;99.90;;;;;;5071405;28;20268;-61
2023/10/21 02:16:53;;;;;;;30.63;18.87;;;7.20;99.90;;;;;;5071373;28;20997;-62
2023/10/21 02:19:19;;;;;;;38.87;18.17;;;7.30;99.90;;;;;;5071750;28;20445;-62
2023/10/21 02:21:46;;;;;;;33.43;18.90;;;7.30;99.90;;;;;;5071280;28;20464;-62
2023/10/21 02:24:12;;;;;;;33.30;20.30;;;7.30;99.90;;;;;;5066843;28;20490;-62
2023/10/21 02:26:37;;;;;;;34.50;20.03;;;7.30;99.90;;;;;;5068841;28;20446;-61
2023/10/21 02:29:03;;;;;;;33.50;19.00;;;7.20;99.90;;;;;;5071027;28;20232;-63
2023/10/21 02:31:29;;;;;;;34.97;20.60;;;7.30;99.90;;;;;;5071787;28;20178;-63
2023/10/21 02:33:55;;;;;;;31.33;18.97;;;7.20;99.90;;;;;;5047617;28;20660;-63
2023/10/21 02:36:21;;;;;;;41.90;16.93;;;7.20;99.90;;;;;;5036985;28;20452;-61
2023/10/21 02:38:52;;;;;;;32.43;19.93;;;7.30;99.90;;;;;;5071210;28;20284;-62
2023/10/21 02:41:17;;;;;;;41.07;20.20;;;7.30;99.90;;;;;;5035937;28;20517;-60
2023/10/21 02:43:43;;;;;;;32.10;18.27;;;7.30;99.90;;;;;;5070937;28;20880;-63
2023/10/21 02:46:10;;;;;;;26.73;16.87;;;7.30;99.90;;;;;;5071326;28;20269;-59
2023/10/21 02:48:36;;;;;;;28.60;17.53;;;7.30;99.90;;;;;;5071015;28;20186;-61
2023/10/21 02:51:12;;;;;;;35.23;19.77;;;7.30;99.90;;;;;;5071115;28;20413;-59
2023/10/21 02:53:39;;;;;;;33.83;19.43;;;7.30;99.90;;;;;;5070885;28;20448;-62
2023/10/21 02:56:06;;;;;;;33.53;19.67;;;7.30;99.90;;;;;;5071337;28;20948;-62
2023/10/21 02:58:34;;;;;;;35.57;20.47;;;7.30;99.90;;;;;;5066202;28;20420;-63
2023/10/21 03:01:11;;;;;;;36.37;18.83;;;7.30;99.90;;;;;;5071236;28;20513;-63
2023/10/21 03:03:37;;;;;;;30.47;19.33;;;7.30;99.90;;;;;;5060060;28;20889;-62
2023/10/21 03:06:03;;;;;;;32.13;19.97;;;7.40;99.90;;;;;;5071143;28;20440;-63
2023/10/21 03:08:29;;;;;;;36.60;19.27;;;7.40;99.90;;;;;;5070403;28;20839;-63
2023/10/21 03:10:55;;;;;;;32.50;18.23;;;7.40;99.90;;;;;;5053119;28;20200;-63
2023/10/21 03:13:20;;;;;;;36.07;18.70;;;7.40;99.90;;;;;;5059040;28;20507;-63
2023/10/21 03:15:46;;;;;;;40.00;20.03;;;7.40;99.90;;;;;;5069262;28;20510;-63
2023/10/21 03:18:12;;;;;;;36.13;19.03;;;7.40;99.90;;;;;;5068550;28;20193;-63
2023/10/21 03:20:37;;;;;;;33.83;19.07;;;7.40;99.90;;;;;;5067478;28;20309;-63
2023/10/21 03:23:03;;;;;;;37.87;18.30;;;7.40;99.90;;;;;;5070684;28;20243;-62
2023/10/21 03:25:29;;;;;;;30.30;18.87;;;7.40;99.90;;;;;;5070511;28;20203;-63
2023/10/21 03:28:00;;;;;;;37.83;19.67;;;7.40;99.90;;;;;;5071362;28;20427;-60
2023/10/21 03:30:26;;;;;;;34.87;18.13;;;7.40;99.90;;;;;;5048627;28;20500;-61
2023/10/21 03:32:51;;;;;;;40.43;20.17;;;7.40;99.90;;;;;;5070766;28;20437;-63
2023/10/21 03:35:17;;;;;;;35.67;21.30;;;7.50;99.90;;;;;;5070592;28;20799;-63
2023/10/21 03:37:42;;;;;;;32.00;19.57;;;7.50;99.90;;;;;;5073945;28;20207;-63
2023/10/21 03:40:10;;;;;;;38.23;18.90;;;7.40;99.90;;;;;;5074738;28;20252;-63
2023/10/21 03:42:37;;;;;;;39.37;19.00;;;7.40;99.90;;;;;;5074406;28;20213;-63
2023/10/21 03:45:04;;;;;;;34.07;18.73;;;7.40;99.90;;;;;;5074440;28;20420;-63
2023/10/21 03:47:30;;;;;;;39.37;17.70;;;7.30;99.90;;;;;;5071530;28;20516;-63
2023/10/21 03:49:57;;;;;;;33.73;18.87;;;7.40;99.90;;;;;;5074512;28;20832;-63
2023/10/21 03:52:22;;;;;;;37.93;18.63;;;7.40;99.90;;;;;;5074240;28;20426;-62
2023/10/21 03:54:48;;;;;;;29.40;17.77;;;7.30;99.90;;;;;;5074017;28;20484;-63
2023/10/21 03:57:14;;;;;;;35.27;18.73;;;7.40;99.90;;;;;;5074498;28;20643;-63
2023/10/21 03:59:39;;;;;;;41.00;22.37;;;7.40;99.90;;;;;;5056694;28;20188;-60
2023/10/21 04:02:05;;;;;;;32.13;17.67;;;7.40;99.90;;;;;;5061734;28;20210;-62
2023/10/21 04:04:31;;;;;;;27.77;17.40;;;7.40;99.90;;;;;;5067687;28;20664;-61
2023/10/21 04:06:57;;;;;;;33.93;17.40;;;7.40;99.90;;;;;;5074185;28;20436;-62
2023/10/21 04:09:23;;;;;;;39.83;19.13;;;7.30;99.90;;;;;;5074303;28;20183;-61
2023/10/21 04:11:49;;;;;;;52.13;20.07;;;7.40;99.90;;;;;;5046660;28;20600;-64
2023/10/21 04:14:15;;;;;;;33.03;18.17;;;7.30;99.90;;;;;;5074281;28;20517;-62
2023/10/21 04:16:44;;;;;;;35.90;20.40;;;7.40;99.90;;;;;;5073834;28;20554;-63
2023/10/21 04:19:10;;;;;;;31.67;18.83;;;7.40;99.90;;;;;;5074079;28;20934;-64
2023/10/21 04:21:36;;;;;;;40.50;18.97;;;7.40;99.90;;;;;;5070383;28;20454;-64
2023/10/21 04:24:03;;;;;;;29.27;17.30;;;7.50;99.90;;;;;;5073814;28;20446;-62
2023/10/21 04:26:29;;;;;;;42.73;19.73;;;7.40;99.90;;;;;;5071393;28;20214;-64
2023/10/21 04:28:54;;;;;;;26.10;18.03;;;7.40;99.90;;;;;;5073682;28;20912;-64
2023/10/21 04:31:20;;;;;;;52.00;20.93;;;7.40;99.90;;;;;;5073844;28;20474;-64
2023/10/21 04:33:46;;;;;;;40.00;18.70;;;7.40;99.90;;;;;;5073391;28;20211;-64
2023/10/21 04:36:11;;;;;;;34.80;18.70;;;7.40;99.90;;;;;;5073401;28;20249;-62
2023/10/21 04:38:37;;;;;;;50.93;20.63;;;7.40;99.90;;;;;;5068952;28;20179;-62
2023/10/21 04:41:07;;;;;;;32.27;18.60;;;7.40;99.90;;;;;;5073771;28;20270;-62
2023/10/21 04:43:32;;;;;;;33.73;18.17;;;7.40;99.90;;;;;;5073548;28;20452;-63
2023/10/21 04:45:58;;;;;;;38.97;18.80;;;7.40;99.90;;;;;;5073880;28;20476;-64
2023/10/21 04:48:23;;;;;;;48.43;18.47;;;7.40;99.90;;;;;;5072302;28;20183;-63
2023/10/21 04:50:49;;;;;;;32.50;17.60;;;7.40;99.90;;;;;;5079546;23;20222;-63
2023/10/21 04:53:15;;;;;;;44.30;19.73;;;7.40;99.90;;;;;;5082768;28;20271;-61
2023/10/21 04:55:41;;;;;;;29.20;17.57;;;7.40;99.90;;;;;;5078080;28;20224;-62
2023/10/21 04:58:07;;;;;;;46.07;18.00;;;7.40;99.90;;;;;;5080050;28;20479;-62
2023/10/21 05:00:33;;;;;;;38.83;19.53;;;7.40;99.90;;;;;;5080005;28;20208;-64
2023/10/21 05:02:58;;;;;;;37.63;17.97;;;7.40;99.90;;;;;;5083445;28;20219;-63
2023/10/21 05:05:24;;;;;;;48.37;20.63;;;7.40;99.90;;;;;;5083420;28;20176;-63
2023/10/21 05:07:50;;;;;;;43.17;18.47;;;7.50;99.90;;;;;;5080338;28;20248;-64
2023/10/21 05:10:18;;;;;;;34.60;18.87;;;7.40;99.90;;;;;;5076843;28;20976;-63
2023/10/21 05:12:43;;;;;;;44.87;20.40;;;7.40;99.90;;;;;;5078253;28;20180;-63
2023/10/21 05:15:09;;;;;;;40.37;20.20;;;7.40;99.90;;;;;;5083453;28;20446;-64
2023/10/21 05:17:35;;;;;;;40.97;20.97;;;7.50;99.90;;;;;;5074035;28;20622;-63
2023/10/21 05:20:02;;;;;;;37.43;19.00;;;7.40;99.90;;;;;;5079418;28;20451;-65
2023/10/21 05:22:28;;;;;;;52.83;19.70;;;7.50;99.90;;;;;;5071012;28;20306;-63
2023/10/21 05:24:55;;;;;;;36.87;18.27;;;7.40;99.90;;;;;;5081000;28;20453;-64
2023/10/21 05:27:21;;;;;;;32.17;17.40;;;7.40;99.90;;;;;;5070749;28;21064;-63
2023/10/21 05:29:46;;;;;;;33.80;18.97;;;7.40;99.90;;;;;;5070177;28;20465;-64
2023/10/21 05:32:12;;;;;;;31.03;19.13;;;7.40;99.90;;;;;;5075677;28;20193;-64
2023/10/21 05:34:39;;;;;;;42.13;20.40;;;7.40;99.90;;;;;;5083540;28;20187;-64
2023/10/21 05:37:04;;;;;;;33.27;19.70;;;7.40;99.90;;;;;;5072131;28;20178;-65
2023/10/21 05:39:30;;;;;;;33.80;19.70;;;7.50;99.90;;;;;;5077693;28;20540;-64
2023/10/21 05:41:55;;;;;;;44.30;19.63;;;7.50;99.90;;;;;;5077833;28;20214;-65
2023/10/21 05:44:21;;;;;;;33.50;17.97;;;7.50;99.90;;;;;;5075303;28;20224;-64
2023/10/21 05:46:47;;;;;;;38.03;18.67;;;7.50;99.90;;;;;;5077377;28;20537;-62
2023/10/21 05:49:13;;;;;;;42.57;19.20;;;7.40;99.90;;;;;;5082259;28;20434;-65
2023/10/21 05:51:38;;;;;;;30.80;17.20;;;7.50;99.90;;;;;;5075711;28;20202;-61
2023/10/21 05:54:04;;;;;;;39.43;19.27;;;7.40;99.90;;;;;;5082110;28;20256;-64
2023/10/21 05:56:29;;;;;;;40.03;18.13;;;7.40;99.90;;;;;;5074332;28;20257;-64
2023/10/21 05:58:55;;;;;;;26.00;16.60;;;7.50;99.90;;;;;;5067972;28;20189;-65
2023/10/21 06:01:21;;;;;;;36.07;18.63;;;7.50;99.90;;;;;;5076346;28;20291;-64
2023/10/21 06:03:47;;;;;;;35.30;19.90;;;7.50;99.90;;;;;;5068282;28;20186;-65
2023/10/21 06:06:13;;;;;;;47.87;18.00;;;7.50;99.90;;;;;;5087498;28;20530;-64
2023/10/21 06:08:39;;;;;;;34.53;16.77;;;7.50;99.90;;;;;;5086949;28;20524;-65
2023/10/21 06:11:05;;;;;;;38.13;18.17;;;7.40;99.90;;;;;;5087129;28;20296;-65
2023/10/21 06:13:30;;;;;;;26.13;16.70;;;7.50;99.90;;;;;;5082458;28;20184;-65
2023/10/21 06:15:56;;;;;;;28.93;17.60;;;7.50;99.90;;;;;;5073334;28;20264;-62
2023/10/21 06:18:21;;;;;;;41.10;17.80;;;7.60;99.90;;;;;;5076528;28;20187;-66
2023/10/21 06:20:51;;;;;;;39.87;17.57;;;7.50;99.90;;;;;;5083342;28;20216;-62
2023/10/21 06:23:17;;;;;;;41.90;16.83;;;7.50;99.90;;;;;;5082505;28;20211;-62
2023/10/21 06:25:43;;;;;;;32.70;17.57;;;7.60;99.90;;;;;;5076943;28;20417;-64
2023/10/21 06:28:09;;;;;;;44.57;18.50;;;7.70;99.90;;;;;;5079554;28;20191;-63
2023/10/21 06:30:41;;;;;;;29.00;14.87;;;7.60;99.90;;;;;;5086622;28;20454;-64
2023/10/21 06:33:09;;;;;;;45.80;16.67;;;7.70;99.90;;;;;;5074534;28;20423;-63
2023/10/21 06:35:36;;;;;;;34.53;17.77;;;7.70;99.90;;;;;;5075590;28;20527;-64
2023/10/21 06:38:01;;;;;;;44.30;18.73;;;7.70;99.90;;;;;;5066300;28;20773;-65
2023/10/21 06:40:27;;;;;;;42.50;18.30;;;7.70;99.90;;;;;;5081972;28;20454;-63
2023/10/21 06:42:53;;;;;;;32.60;17.30;;;7.70;99.90;;;;;;5075039;28;20211;-65
2023/10/21 06:45:18;;;;;;;34.90;17.30;;;7.70;99.90;;;;;;5074980;28;20180;-64
2023/10/21 06:47:45;;;;;;;32.53;16.57;;;7.70;99.90;;;;;;5083935;28;20179;-65
2023/10/21 06:50:11;;;;;;;34.10;18.03;;;7.70;99.90;;;;;;5081444;28;20219;-64
2023/10/21 06:52:37;;;;;;;32.43;16.13;;;7.80;99.90;;;;;;5074128;28;20763;-63
2023/10/21 06:55:02;;;;;;;31.50;17.60;;;7.80;99.90;;;;;;5072820;28;20450;-65
2023/10/21 06:57:28;;;;;;;40.47;18.33;;;7.70;99.90;;;;;;5081586;28;20670;-64
2023/10/21 06:59:53;;;;;;;32.33;18.60;;;7.80;99.90;;;;;;5077397;28;20232;-62
2023/10/21 07:02:19;;;;;;;31.93;17.77;;;7.80;99.90;;;;;;5080102;28;20729;-64
2023/10/21 07:04:45;;;;;;;43.23;19.10;;;7.90;99.90;;;;;;5082387;28;20204;-63
2023/10/21 07:07:10;;;;;;;37.60;17.37;;;7.90;99.90;;;;;;5078118;28;20197;-63
2023/10/21 07:09:37;;;;;;;33.87;18.10;;;7.90;99.90;;;;;;5082031;28;20243;-63
2023/10/21 07:12:04;;;;;;;29.90;17.07;;;7.90;99.90;;;;;;5072643;28;20544;-63
2023/10/21 07:14:30;;;;;;;40.97;17.60;;;7.90;99.90;;;;;;5078233;28;20966;-63
2023/10/21 07:16:56;;;;;;;33.87;18.97;;;8.00;99.90;;;;;;5082293;28;20423;-64
2023/10/21 07:19:22;;;;;;;34.17;20.70;;;8.00;99.90;;;;;;5077785;28;20453;-63
2023/10/21 07:21:51;;;;;;;22.73;16.73;;;8.00;99.90;;;;;;5080880;28;20496;-67
2023/10/21 07:24:16;;;;;;;31.97;17.70;;;8.10;99.90;;;;;;5085734;28;20179;-63
2023/10/21 07:26:42;;;;;;;37.00;17.67;;;8.10;99.90;;;;;;5085147;28;20564;-64
2023/10/21 07:29:09;;;;;;;26.27;15.93;;;8.10;99.90;;;;;;5073704;28;20546;-64
2023/10/21 07:31:35;;;;;;;27.10;17.90;;;8.20;99.90;;;;;;5077714;28;20951;-65
2023/10/21 07:34:01;;;;;;;30.33;17.50;;;8.30;99.90;;;;;;5081873;28;20437;-63
2023/10/21 07:36:27;;;;;;;39.27;20.20;;;8.30;99.90;;;;;;5080074;28;20523;-61
2023/10/21 07:38:53;;;;;;;29.30;18.07;;;8.40;99.90;;;;;;5077156;28;20416;-63
2023/10/21 07:41:19;;;;;;;30.50;16.70;;;8.50;99.90;;;;;;5083775;28;20306;-64
2023/10/21 07:43:45;;;;;;;26.43;18.23;;;8.50;99.90;;;;;;5079560;28;20437;-64
2023/10/21 07:46:12;;;;;;;30.93;19.67;;;8.50;99.90;;;;;;5077151;28;20198;-65
2023/10/21 07:48:39;;;;;;;32.47;18.27;;;8.50;99.90;;;;;;5077682;28;20427;-63
2023/10/21 07:51:05;;;;;;;28.27;19.00;;;8.60;99.90;;;;;;5058231;28;20506;-64
2023/10/21 07:53:31;;;;;;;27.23;20.23;;;8.60;99.90;;;;;;5081939;28;20427;-64
2023/10/21 07:55:56;;;;;;;24.67;17.67;;;8.60;99.90;;;;;;5076325;28;20445;-64
2023/10/21 07:58:23;;;;;;;25.50;16.40;;;8.60;99.90;;;;;;5079794;28;20568;-64
2023/10/21 08:00:48;;;;;;;26.23;17.90;;;8.70;99.90;;;;;;5081399;28;20203;-62
2023/10/21 08:03:14;;;;;;;24.60;16.47;;;8.70;99.90;;;;;;5074299;28;20878;-63
2023/10/21 08:05:40;;;;;;;25.47;17.63;;;8.90;99.90;;;;;;5076749;28;20177;-63
2023/10/21 08:08:07;;;;;;;27.30;19.37;;;9.20;99.90;;;;;;5082134;28;20178;-66
2023/10/21 08:10:33;;;;;;;28.50;17.83;;;9.30;99.90;;;;;;5080179;28;20523;-63
2023/10/21 08:12:59;;;;;;;24.27;16.53;;;9.50;99.90;;;;;;5082380;28;20467;-63
2023/10/21 08:15:25;;;;;;;21.43;15.70;;;9.50;99.90;;;;;;5077915;28;20438;-60
2023/10/21 08:17:51;;;;;;;18.07;13.70;;;9.60;99.90;;;;;;5082254;28;20213;-61
2023/10/21 08:20:17;;;;;;;22.53;15.60;;;9.60;99.90;;;;;;5071585;28;20209;-61
2023/10/21 08:22:43;;;;;;;21.37;17.73;;;9.70;99.90;;;;;;5065898;28;20287;-63
2023/10/21 08:25:08;;;;;;;19.50;16.30;;;9.60;99.90;;;;;;5071954;28;20412;-62
2023/10/21 08:27:36;;;;;;;19.27;14.87;;;9.70;99.90;;;;;;5081250;28;20541;-62
2023/10/21 08:30:02;;;;;;;23.33;16.23;;;9.70;99.90;;;;;;5087374;28;20691;-60
2023/10/21 08:32:28;;;;;;;23.33;14.57;;;9.80;99.90;;;;;;5083115;28;20478;-63
2023/10/21 08:34:53;;;;;;;15.93;12.90;;;9.90;99.90;;;;;;5084535;28;20420;-61
2023/10/21 08:37:19;;;;;;;15.83;13.53;;;10.10;99.90;;;;;;5079858;28;20265;-63
2023/10/21 08:39:48;;;;;;;18.27;13.67;;;10.20;99.90;;;;;;5073127;28;20651;-63
2023/10/21 08:42:16;;;;;;;15.57;13.53;;;10.30;99.90;;;;;;5083278;28;20572;-62
2023/10/21 08:44:43;;;;;;;17.00;13.83;;;10.40;99.90;;;;;;5082075;28;20411;-62
2023/10/21 08:47:11;;;;;;;18.10;13.60;;;10.40;99.90;;;;;;5055663;28;20484;-61
2023/10/21 08:49:37;;;;;;;14.17;11.90;;;10.60;99.90;;;;;;5088873;28;20432;-63
2023/10/21 08:52:04;;;;;;;17.20;13.07;;;10.60;99.90;;;;;;5078037;28;20480;-60
2023/10/21 08:54:32;;;;;;;14.70;12.60;;;10.80;99.90;;;;;;5079395;28;20423;-63
2023/10/21 08:56:58;;;;;;;14.17;12.00;;;10.90;99.90;;;;;;5085665;28;20510;-62
2023/10/21 08:59:24;;;;;;;14.67;12.77;;;11.00;99.90;;;;;;5083763;28;20427;-61
2023/10/21 09:01:49;;;;;;;14.00;11.80;;;11.20;99.90;;;;;;5088364;28;20455;-60
2023/10/21 09:04:18;;;;;;;14.80;12.53;;;11.10;99.90;;;;;;5075198;28;20355;-63
2023/10/21 09:07:00;;;;;;;13.17;11.23;;;11.30;99.90;;;;;;5083688;28;20174;-61
2023/10/21 09:09:27;;;;;;;13.37;11.40;;;11.30;99.90;;;;;;5084663;28;20414;-62
2023/10/21 09:12:03;;;;;;;13.63;11.87;;;11.50;99.90;;;;;;5079033;28;20420;-63
2023/10/21 09:14:29;;;;;;;13.77;12.37;;;11.60;99.90;;;;;;5088808;28;20480;-64
2023/10/21 09:16:56;;;;;;;12.67;10.83;;;11.60;99.90;;;;;;5080100;28;20491;-62
2023/10/21 09:19:25;;;;;;;11.60;10.40;;;11.70;99.90;;;;;;5083358;28;20420;-63
2023/10/21 09:21:51;;;;;;;12.87;10.80;;;12.00;99.90;;;;;;5082611;28;20459;-63
2023/10/21 09:24:24;;;;;;;13.20;11.03;;;11.90;99.90;;;;;;5079222;28;20435;-63
2023/10/21 09:26:51;;;;;;;13.57;11.13;;;12.00;99.90;;;;;;5086131;28;20193;-62
2023/10/21 09:29:19;;;;;;;12.27;10.87;;;12.00;99.90;;;;;;5081073;28;20926;-67
2023/10/21 09:31:51;;;;;;;12.30;11.00;;;12.10;99.90;;;;;;5080248;28;20484;-65
2023/10/21 09:34:34;;;;;;;13.73;12.33;;;12.30;99.90;;;;;;5068735;28;20500;-65
2023/10/21 09:37:04;;;;;;;13.87;11.47;;;12.40;99.90;;;;;;5078774;28;20758;-66
2023/10/21 09:39:36;;;;;;;14.33;12.23;;;12.30;99.90;;;;;;5080227;28;20421;-66
2023/10/21 09:42:03;;;;;;;29.67;23.03;;;12.60;99.90;;;;;;5085031;28;20470;-65
2023/10/21 09:44:29;;;;;;;48.03;27.63;;;12.70;99.90;;;;;;5077071;28;20426;-64
2023/10/21 09:46:56;;;;;;;14.00;10.63;;;13.00;99.90;;;;;;5089360;28;20408;-65
2023/10/21 09:49:23;;;;;;;11.67;10.47;;;13.00;99.90;;;;;;5077262;28;20846;-63
2023/10/21 09:52:12;;;;;;;12.13;10.20;;;13.10;99.90;;;;;;5077496;28;20431;-64
2023/10/21 09:54:52;;;;;;;10.70;9.60;;;13.10;99.90;;;;;;5081376;28;20477;-62
2023/10/21 09:57:19;;;;;;;13.33;10.10;;;13.20;99.90;;;;;;5085791;28;20397;-62
2023/10/21 09:59:46;;;;;;;12.23;9.83;;;13.40;99.90;;;;;;5082349;28;20454;-64
2023/10/21 10:02:12;;;;;;;12.10;9.73;;;13.40;99.90;;;;;;5077004;28;20553;-61
2023/10/21 10:04:39;;;;;;;12.20;10.07;;;13.70;99.90;;;;;;5081344;28;20474;-66
2023/10/21 10:07:09;;;;;;;10.43;8.93;;;13.80;99.90;;;;;;5082100;28;20779;-61
2023/10/21 10:09:40;;;;;;;9.30;8.30;;;13.90;99.90;;;;;;5077268;28;20420;-60
2023/10/21 10:12:12;;;;;;;10.07;9.07;;;13.90;99.90;;;;;;5083510;28;20440;-59
2023/10/21 10:14:37;;;;;;;9.47;8.47;;;13.90;99.90;;;;;;5080710;28;20959;-59
2023/10/21 10:17:06;;;;;;;9.37;8.50;;;13.90;99.90;;;;;;5081919;28;20456;-61
2023/10/21 10:19:39;;;;;;;13.53;8.83;;;14.10;99.90;;;;;;5078851;28;20260;-62
2023/10/21 10:22:19;;;;;;;10.33;8.70;;;14.20;99.90;;;;;;5083702;28;20460;-62
2023/10/21 10:24:55;;;;;;;10.37;8.23;;;14.00;99.90;;;;;;5080485;28;20422;-68
2023/10/21 10:27:24;;;;;;;8.93;8.03;;;14.30;99.90;;;;;;5077397;28;20405;-65
2023/10/21 10:29:51;;;;;;;10.07;9.07;;;14.40;99.90;;;;;;5078216;28;20461;-64
2023/10/21 10:32:17;;;;;;;8.43;7.63;;;14.30;99.90;;;;;;5074464;28;20444;-65
2023/10/21 10:34:53;;;;;;;8.57;7.77;;;14.20;99.90;;;;;;5080516;28;20875;-69
2023/10/21 10:37:51;;;;;;;13.33;10.53;;;14.30;99.90;;;;;;5071688;28;20421;-64
2023/10/21 10:40:21;;;;;;;9.80;8.80;;;14.60;99.90;;;;;;5068373;28;20470;-69
2023/10/21 10:42:46;;;;;;;10.40;8.87;;;14.80;99.90;;;;;;5072779;28;20480;-68
2023/10/21 10:45:12;;;;;;;47.90;36.90;;;15.00;99.90;;;;;;5082997;28;20426;-65
2023/10/21 10:47:40;;;;;;;17.47;15.07;;;15.20;99.90;;;;;;5083205;28;20221;-65
2023/10/21 10:50:12;;;;;;;13.50;11.00;;;15.50;99.90;;;;;;5076909;28;20784;-61
2023/10/21 10:52:38;;;;;;;9.33;6.73;;;15.40;99.90;;;;;;5081400;28;20475;-68
2023/10/21 10:55:08;;;;;;;16.60;10.50;;;15.50;99.90;;;;;;5081176;28;20418;-65
2023/10/21 10:57:34;;;;;;;11.13;8.30;;;15.70;99.90;;;;;;5078741;28;20624;-63
2023/10/21 10:59:59;;;;;;;6.23;5.63;;;16.00;99.90;;;;;;5081839;28;20454;-63
2023/10/21 11:02:28;;;;;;;10.80;6.07;;;16.10;99.90;;;;;;5083228;28;20287;-63
2023/10/21 11:04:58;;;;;;;5.27;4.60;;;16.10;99.90;;;;;;5080775;28;20258;-63
2023/10/21 11:07:26;;;;;;;6.77;5.43;;;16.20;99.90;;;;;;5078949;28;20529;-62
2023/10/21 11:10:02;;;;;;;5.13;4.63;;;16.10;99.90;;;;;;5078137;28;20437;-65
2023/10/21 11:12:27;;;;;;;5.47;4.97;;;16.20;99.90;;;;;;5083024;28;20500;-64
2023/10/21 11:14:53;;;;;;;4.43;4.07;;;16.30;99.90;;;;;;5075841;28;20961;-62
2023/10/21 11:17:19;;;;;;;28.17;21.37;;;16.50;99.90;;;;;;5072192;28;20177;-62
2023/10/21 11:19:45;;;;;;;3.97;3.53;;;16.70;99.90;;;;;;5072187;28;20571;-62
2023/10/21 11:22:21;;;;;;;3.93;2.90;;;16.90;99.90;;;;;;5078199;28;20256;-62
2023/10/21 11:24:47;;;;;;;5.10;3.70;;;16.90;99.90;;;;;;5083768;28;20541;-60
2023/10/21 11:27:14;;;;;;;9.73;6.70;;;17.00;99.90;;;;;;5077031;28;20490;-62
2023/10/21 11:29:41;;;;;;;14.47;11.50;;;17.00;99.90;;;;;;5082330;28;20205;-63
2023/10/21 11:32:13;;;;;;;33.63;19.00;;;17.20;99.90;;;;;;5075129;28;20420;-63
2023/10/21 11:34:44;;;;;;;2.60;2.13;;;17.40;99.90;;;;;;5081817;28;20423;-62
2023/10/21 11:37:11;;;;;;;3.57;2.27;;;17.30;99.90;;;;;;5076226;28;20422;-63
2023/10/21 11:39:39;;;;;;;2.30;1.20;;;17.40;99.90;;;;;;5072377;28;20435;-63
2023/10/21 11:42:15;;;;;;;1.73;1.37;;;17.20;99.90;;;;;;5070045;28;20462;-61
2023/10/21 11:44:41;;;;;;;0.80;0.80;;;17.20;99.90;;;;;;5065802;28;20493;-61
2023/10/21 11:47:07;;;;;;;8.87;4.83;;;17.20;99.90;;;;;;5084263;28;20402;-63
2023/10/21 11:49:37;;;;;;;2.20;1.57;;;17.20;99.90;;;;;;5087070;28;20207;-62
2023/10/21 11:52:03;;;;;;;4.93;3.80;;;17.20;99.90;;;;;;5082307;28;20207;-62
2023/10/21 12:05:49;;;;;;;3.13;2.83;;;17.50;99.90;;;;;;5085608;28;20408;-61
2023/10/21 12:14:32;;;;;;;2.13;1.03;;;17.60;99.90;;;;;;5054354;28;20944;-63
2023/10/21 12:40:37;;;;;;;2.83;1.97;;;17.90;99.90;;;;;;5093101;28;20458;-63
2023/10/21 12:45:49;;;;;;;1.87;1.00;;;18.10;99.90;;;;;;5071070;28;20413;-60
2023/10/21 12:48:17;;;;;;;1.73;1.00;;;18.10;99.90;;;;;;5083720;28;20770;-61
2023/10/21 12:50:49;;;;;;;1.83;0.97;;;18.20;99.90;;;;;;5073986;28;20503;-63
2023/10/21 12:53:15;;;;;;;4.60;3.30;;;18.40;99.90;;;;;;5072910;28;20437;-61
2023/10/21 12:55:41;;;;;;;3.20;2.40;;;18.20;99.90;;;;;;5090953;28;20643;-59
2023/10/21 12:58:07;;;;;;;5.47;3.90;;;18.30;99.90;;;;;;5089708;28;20564;-62
2023/10/21 13:00:32;;;;;;;6.67;2.67;;;18.40;99.90;;;;;;5083880;28;20226;-63
2023/10/21 13:02:58;;;;;;;1.20;1.10;;;18.40;99.90;;;;;;5076869;28;20298;-63
2023/10/21 13:05:24;;;;;;;1.27;1.00;;;18.20;99.90;;;;;;5088883;28;20212;-63
2023/10/21 13:07:50;;;;;;;2.00;1.10;;;18.10;99.90;;;;;;5079093;28;20460;-63
2023/10/21 13:10:15;;;;;;;2.03;1.23;;;18.10;99.90;;;;;;5080356;28;20244;-62
2023/10/21 13:12:41;;;;;;;1.07;0.97;;;18.30;99.90;;;;;;5085015;28;20176;-63
2023/10/21 13:15:16;;;;;;;1.40;1.30;;;18.80;99.90;;;;;;5075265;28;20177;-63
2023/10/21 13:17:42;;;;;;;3.23;2.00;;;18.80;99.90;;;;;;5076580;28;20176;-63
2023/10/21 13:20:17;;;;;;;1.17;1.00;;;18.70;99.90;;;;;;5083574;28;20438;-62
2023/10/21 13:22:44;;;;;;;1.97;1.30;;;18.40;99.90;;;;;;5084739;28;20539;-62